Brecon, United Kingdom
Current Conditions -  °F | °C
As of 11:20 AM on Sunday 23 Nov 2014 (Local Time) from EGFF Reporting Station
Scattered Clouds Scattered Clouds  
Wind Chill: 46°   Ceiling: Unl
Heat Index: 48°   Visibility: 6mi
Dew Point: 45°   Wind: 6mph
Humidity: 87%   Direction: 340°NNW
Pressure: 30.09"   Gusts: NA
Location:  51.95°N, 3.39°W
Report Text: EGFF 231120Z 34005KT 9999 FEW018 SCT048 09/07 Q1019
Loading
Personal Weather Stations






























Interactive Weather Map New forecast layout! Learn more

10-Day Weather Forecast

Advertisements
Track Severe Weather on mobile